Bijie, China
Current Conditions -  °F | °C
As of 2:00 PM on Wednesday 22 Oct 2014 (Local Time) from ZUGY Reporting Station
Few Clouds Few Clouds  
Wind Chill: 73°   Ceiling: Unl
Heat Index: 73°   Visibility: 6mi
Dew Point: 54°   Wind: 4mph
Humidity: 50%   Direction: NA
Pressure: 30.18"   Gusts: NA
Location:  27.31°N, 105.28°E
Report Text: ZUGY 220600Z VRB02MPS 9999 FEW030 23/12 Q1022 NOSIG
Loading
Personal Weather Stations






























Interactive Weather Map
Tropical Storm Tracking
New forecast layout! Learn more

10-Day Weather Forecast

Advertisements
Track Severe Weather on mobile